sensor_id;sensor_type;location;lat;lon;timestamp;pressure;altitude;pressure_sealevel;temperature;humidity
7026;BME280;3554;42.132;24.786;2022-12-24T00:00:57;98040.91;;;2.49;100.00
7026;BME280;3554;42.132;24.786;2022-12-24T00:03:24;98005.34;;;2.57;100.00
7026;BME280;3554;42.132;24.786;2022-12-24T00:05:51;98002.50;;;2.66;100.00
7026;BME280;3554;42.132;24.786;2022-12-24T00:08:17;98006.81;;;2.65;100.00
7026;BME280;3554;42.132;24.786;2022-12-24T00:10:48;98007.34;;;2.49;100.00
7026;BME280;3554;42.132;24.786;2022-12-24T00:13:15;97997.28;;;2.40;100.00
7026;BME280;3554;42.132;24.786;2022-12-24T00:15:42;97984.78;;;2.26;100.00
7026;BME280;3554;42.132;24.786;2022-12-24T00:18:08;97974.72;;;2.18;100.00
7026;BME280;3554;42.132;24.786;2022-12-24T00:20:35;97968.09;;;2.10;100.00
7026;BME280;3554;42.132;24.786;2022-12-24T00:23:02;97943.81;;;2.17;100.00
7026;BME280;3554;42.132;24.786;2022-12-24T00:25:29;97949.31;;;2.05;100.00
7026;BME280;3554;42.132;24.786;2022-12-24T00:27:57;97956.38;;;1.98;100.00
7026;BME280;3554;42.132;24.786;2022-12-24T00:30:24;97935.47;;;2.07;100.00
7026;BME280;3554;42.132;24.786;2022-12-24T00:32:50;97945.63;;;1.84;100.00
7026;BME280;3554;42.132;24.786;2022-12-24T00:35:17;97918.72;;;1.93;100.00
7026;BME280;3554;42.132;24.786;2022-12-24T00:37:46;97915.06;;;2.00;100.00
7026;BME280;3554;42.132;24.786;2022-12-24T00:40:13;97903.94;;;1.98;100.00
7026;BME280;3554;42.132;24.786;2022-12-24T00:42:39;97910.13;;;1.92;100.00
7026;BME280;3554;42.132;24.786;2022-12-24T00:45:09;97898.66;;;2.02;100.00
7026;BME280;3554;42.132;24.786;2022-12-24T00:47:36;97897.63;;;2.08;100.00
7026;BME280;3554;42.132;24.786;2022-12-24T00:50:03;97883.06;;;2.05;100.00
7026;BME280;3554;42.132;24.786;2022-12-24T00:52:30;97870.94;;;2.09;100.00
7026;BME280;3554;42.132;24.786;2022-12-24T00:54:57;97857.03;;;2.13;100.00
7026;BME280;3554;42.132;24.786;2022-12-24T00:57:24;97863.25;;;2.07;100.00
7026;BME280;3554;42.132;24.786;2022-12-24T00:59:50;97848.66;;;2.06;100.00
7026;BME280;3554;42.132;24.786;2022-12-24T01:02:18;97853.25;;;1.97;100.00
7026;BME280;3554;42.132;24.786;2022-12-24T01:04:45;97855.72;;;2.00;100.00
7026;BME280;3554;42.132;24.786;2022-12-24T01:07:29;97843.78;;;1.97;100.00
7026;BME280;3554;42.132;24.786;2022-12-24T01:09:56;97832.56;;;1.98;100.00
7026;BME280;3554;42.132;24.786;2022-12-24T01:12:23;97831.53;;;2.04;100.00
7026;BME280;3554;42.132;24.786;2022-12-24T01:14:49;97834.97;;;2.04;100.00
7026;BME280;3554;42.132;24.786;2022-12-24T01:17:16;97801.22;;;1.84;100.00
7026;BME280;3554;42.132;24.786;2022-12-24T01:19:44;97819.38;;;2.07;100.00
7026;BME280;3554;42.132;24.786;2022-12-24T01:22:11;97826.44;;;2.02;100.00
7026;BME280;3554;42.132;24.786;2022-12-24T01:24:39;97827.34;;;2.00;100.00
7026;BME280;3554;42.132;24.786;2022-12-24T01:27:06;97824.94;;;1.95;100.00
7026;BME280;3554;42.132;24.786;2022-12-24T01:29:33;97835.59;;;1.83;100.00
7026;BME280;3554;42.132;24.786;2022-12-24T01:32:00;97816.78;;;1.81;100.00
7026;BME280;3554;42.132;24.786;2022-12-24T01:34:27;97802.41;;;1.73;100.00
7026;BME280;3554;42.132;24.786;2022-12-24T01:36:55;97780.97;;;1.72;100.00
7026;BME280;3554;42.132;24.786;2022-12-24T01:39:22;97762.66;;;1.80;100.00
7026;BME280;3554;42.132;24.786;2022-12-24T01:41:48;97749.69;;;1.83;100.00
7026;BME280;3554;42.132;24.786;2022-12-24T01:44:34;97749.81;;;1.78;100.00
7026;BME280;3554;42.132;24.786;2022-12-24T01:47:06;97744.88;;;1.72;100.00
7026;BME280;3554;42.132;24.786;2022-12-24T01:49:35;97748.94;;;1.79;100.00
7026;BME280;3554;42.132;24.786;2022-12-24T01:52:06;97746.41;;;1.78;100.00
7026;BME280;3554;42.132;24.786;2022-12-24T01:54:36;97728.16;;;1.84;100.00
7026;BME280;3554;42.132;24.786;2022-12-24T01:57:09;97708.47;;;1.81;100.00
7026;BME280;3554;42.132;24.786;2022-12-24T01:59:37;97700.63;;;1.84;100.00
7026;BME280;3554;42.132;24.786;2022-12-24T02:02:04;97692.09;;;1.82;100.00
7026;BME280;3554;42.132;24.786;2022-12-24T02:04:36;97670.63;;;1.82;100.00
7026;BME280;3554;42.132;24.786;2022-12-24T02:07:05;97670.72;;;1.79;100.00
7026;BME280;3554;42.132;24.786;2022-12-24T02:09:32;97660.47;;;1.77;100.00
7026;BME280;3554;42.132;24.786;2022-12-24T02:12:00;97653.72;;;1.73;100.00
7026;BME280;3554;42.132;24.786;2022-12-24T02:14:27;97674.03;;;1.82;100.00
7026;BME280;3554;42.132;24.786;2022-12-24T02:17:01;97676.75;;;1.79;100.00
7026;BME280;3554;42.132;24.786;2022-12-24T02:19:58;97669.94;;;1.77;100.00
7026;BME280;3554;42.132;24.786;2022-12-24T02:22:40;97669.00;;;1.79;100.00
7026;BME280;3554;42.132;24.786;2022-12-24T02:25:27;97666.56;;;1.75;100.00
7026;BME280;3554;42.132;24.786;2022-12-24T02:28:06;97658.69;;;1.79;100.00
7026;BME280;3554;42.132;24.786;2022-12-24T02:30:42;97662.13;;;1.78;100.00
7026;BME280;3554;42.132;24.786;2022-12-24T02:33:17;97666.78;;;1.69;100.00
7026;BME280;3554;42.132;24.786;2022-12-24T02:35:49;97673.66;;;1.68;100.00
7026;BME280;3554;42.132;24.786;2022-12-24T02:38:23;97676.38;;;1.64;100.00
7026;BME280;3554;42.132;24.786;2022-12-24T02:40:54;97682.31;;;1.67;100.00
7026;BME280;3554;42.132;24.786;2022-12-24T02:43:25;97660.03;;;1.39;100.00
7026;BME280;3554;42.132;24.786;2022-12-24T02:45:57;97694.41;;;1.65;100.00
7026;BME280;3554;42.132;24.786;2022-12-24T02:48:26;97691.81;;;1.65;100.00
7026;BME280;3554;42.132;24.786;2022-12-24T02:50:56;97711.94;;;1.54;100.00
7026;BME280;3554;42.132;24.786;2022-12-24T02:53:23;97753.78;;;1.35;100.00
7026;BME280;3554;42.132;24.786;2022-12-24T02:58:47;97741.13;;;1.27;100.00
7026;BME280;3554;42.132;24.786;2022-12-24T03:01:26;97741.75;;;1.35;100.00
7026;BME280;3554;42.132;24.786;2022-12-24T03:04:05;97691.09;;;1.34;100.00
7026;BME280;3554;42.132;24.786;2022-12-24T03:06:41;97682.09;;;1.20;100.00
7026;BME280;3554;42.132;24.786;2022-12-24T03:09:14;97639.44;;;1.37;100.00
7026;BME280;3554;42.132;24.786;2022-12-24T03:11:49;97608.63;;;1.34;100.00
7026;BME280;3554;42.132;24.786;2022-12-24T03:14:20;97568.16;;;1.38;100.00
7026;BME280;3554;42.132;24.786;2022-12-24T03:16:49;97565.88;;;1.29;100.00
7026;BME280;3554;42.132;24.786;2022-12-24T03:19:17;97531.28;;;1.36;100.00
7026;BME280;3554;42.132;24.786;2022-12-24T03:21:46;97503.00;;;1.34;100.00
7026;BME280;3554;42.132;24.786;2022-12-24T03:24:14;97521.50;;;1.45;100.00
7026;BME280;3554;42.132;24.786;2022-12-24T03:26:41;97524.75;;;1.50;100.00
7026;BME280;3554;42.132;24.786;2022-12-24T03:29:10;97531.81;;;1.45;100.00
7026;BME280;3554;42.132;24.786;2022-12-24T03:31:42;97529.13;;;1.48;100.00
7026;BME280;3554;42.132;24.786;2022-12-24T03:34:11;97529.72;;;1.56;100.00
7026;BME280;3554;42.132;24.786;2022-12-24T03:36:38;97513.34;;;1.57;100.00
7026;BME280;3554;42.132;24.786;2022-12-24T03:39:05;97521.03;;;1.59;100.00
7026;BME280;3554;42.132;24.786;2022-12-24T03:41:32;97529.66;;;1.58;100.00
7026;BME280;3554;42.132;24.786;2022-12-24T03:43:59;97544.34;;;1.56;100.00
7026;BME280;3554;42.132;24.786;2022-12-24T03:46:26;97549.50;;;1.56;100.00
7026;BME280;3554;42.132;24.786;2022-12-24T03:48:53;97563.13;;;1.59;100.00
7026;BME280;3554;42.132;24.786;2022-12-24T03:51:23;97579.75;;;1.51;100.00
7026;BME280;3554;42.132;24.786;2022-12-24T03:53:51;97588.47;;;1.47;100.00
7026;BME280;3554;42.132;24.786;2022-12-24T03:56:18;97594.28;;;1.52;100.00
7026;BME280;3554;42.132;24.786;2022-12-24T03:58:45;97632.03;;;1.54;100.00
7026;BME280;3554;42.132;24.786;2022-12-24T04:01:12;97647.44;;;1.56;100.00
7026;BME280;3554;42.132;24.786;2022-12-24T04:03:39;97661.97;;;1.58;100.00
7026;BME280;3554;42.132;24.786;2022-12-24T04:06:08;97674.16;;;1.53;100.00
7026;BME280;3554;42.132;24.786;2022-12-24T04:08:37;97679.97;;;1.32;100.00
7026;BME280;3554;42.132;24.786;2022-12-24T04:11:06;97623.06;;;1.14;100.00
7026;BME280;3554;42.132;24.786;2022-12-24T04:13:33;97679.34;;;1.52;100.00
7026;BME280;3554;42.132;24.786;2022-12-24T04:16:02;97669.16;;;1.49;100.00
7026;BME280;3554;42.132;24.786;2022-12-24T04:18:29;97671.91;;;1.43;100.00
7026;BME280;3554;42.132;24.786;2022-12-24T04:20:56;97686.38;;;1.47;100.00
7026;BME280;3554;42.132;24.786;2022-12-24T04:23:23;97666.91;;;1.38;100.00
7026;BME280;3554;42.132;24.786;2022-12-24T04:25:52;97656.66;;;1.37;100.00
7026;BME280;3554;42.132;24.786;2022-12-24T04:28:18;97669.09;;;1.24;100.00
7026;BME280;3554;42.132;24.786;2022-12-24T04:30:45;97665.72;;;1.22;100.00
7026;BME280;3554;42.132;24.786;2022-12-24T04:33:12;97659.16;;;1.12;100.00
7026;BME280;3554;42.132;24.786;2022-12-24T04:35:39;97655.31;;;0.97;100.00
7026;BME280;3554;42.132;24.786;2022-12-24T04:38:07;97635.38;;;1.04;100.00
7026;BME280;3554;42.132;24.786;2022-12-24T04:40:34;97649.72;;;1.11;100.00
7026;BME280;3554;42.132;24.786;2022-12-24T04:43:02;97661.63;;;1.15;100.00
7026;BME280;3554;42.132;24.786;2022-12-24T04:45:30;97658.16;;;1.16;100.00
7026;BME280;3554;42.132;24.786;2022-12-24T04:47:57;97660.78;;;1.15;100.00
7026;BME280;3554;42.132;24.786;2022-12-24T04:50:23;97658.03;;;1.21;100.00
7026;BME280;3554;42.132;24.786;2022-12-24T04:52:50;97663.19;;;1.21;100.00
7026;BME280;3554;42.132;24.786;2022-12-24T04:55:17;97663.97;;;1.23;100.00
7026;BME280;3554;42.132;24.786;2022-12-24T04:57:44;97677.72;;;1.22;100.00
7026;BME280;3554;42.132;24.786;2022-12-24T05:00:13;97686.50;;;1.16;100.00
7026;BME280;3554;42.132;24.786;2022-12-24T05:02:40;97701.41;;;1.06;100.00
7026;BME280;3554;42.132;24.786;2022-12-24T05:05:07;97728.06;;;1.04;100.00
7026;BME280;3554;42.132;24.786;2022-12-24T05:07:34;97743.69;;;0.98;100.00
7026;BME280;3554;42.132;24.786;2022-12-24T05:10:01;97759.53;;;0.84;100.00
7026;BME280;3554;42.132;24.786;2022-12-24T05:12:28;97784.50;;;0.82;100.00
7026;BME280;3554;42.132;24.786;2022-12-24T05:14:54;97796.66;;;0.77;100.00
7026;BME280;3554;42.132;24.786;2022-12-24T05:17:22;97809.31;;;0.85;100.00
7026;BME280;3554;42.132;24.786;2022-12-24T05:19:49;97816.22;;;0.83;100.00
7026;BME280;3554;42.132;24.786;2022-12-24T05:22:16;97818.56;;;0.92;100.00
7026;BME280;3554;42.132;24.786;2022-12-24T05:25:00;97828.06;;;0.90;100.00
7026;BME280;3554;42.132;24.786;2022-12-24T05:27:44;97828.22;;;0.84;100.00
7026;BME280;3554;42.132;24.786;2022-12-24T05:30:11;97825.16;;;0.70;100.00
7026;BME280;3554;42.132;24.786;2022-12-24T05:32:39;97816.63;;;0.68;100.00
7026;BME280;3554;42.132;24.786;2022-12-24T05:35:06;97813.75;;;0.78;100.00
7026;BME280;3554;42.132;24.786;2022-12-24T05:37:33;97819.19;;;0.69;100.00
7026;BME280;3554;42.132;24.786;2022-12-24T05:40:00;97821.53;;;0.77;100.00
7026;BME280;3554;42.132;24.786;2022-12-24T05:42:27;97818.84;;;0.81;100.00
7026;BME280;3554;42.132;24.786;2022-12-24T05:44:53;97824.63;;;0.57;100.00
7026;BME280;3554;42.132;24.786;2022-12-24T05:47:20;97792.94;;;0.55;100.00
7026;BME280;3554;42.132;24.786;2022-12-24T05:49:48;97767.63;;;0.72;100.00
7026;BME280;3554;42.132;24.786;2022-12-24T05:52:15;97756.16;;;0.82;100.00
7026;BME280;3554;42.132;24.786;2022-12-24T05:54:42;97742.16;;;0.92;100.00
7026;BME280;3554;42.132;24.786;2022-12-24T05:57:08;97727.38;;;0.99;100.00
7026;BME280;3554;42.132;24.786;2022-12-24T05:59:35;97725.66;;;0.99;100.00
7026;BME280;3554;42.132;24.786;2022-12-24T06:02:02;97703.03;;;1.09;100.00
7026;BME280;3554;42.132;24.786;2022-12-24T06:04:29;97715.91;;;1.09;100.00
7026;BME280;3554;42.132;24.786;2022-12-24T06:06:57;97713.19;;;1.14;100.00
7026;BME280;3554;42.132;24.786;2022-12-24T06:09:24;97707.69;;;0.96;100.00
7026;BME280;3554;42.132;24.786;2022-12-24T06:11:50;97660.31;;;1.30;100.00
7026;BME280;3554;42.132;24.786;2022-12-24T06:14:17;97626.56;;;1.37;100.00
7026;BME280;3554;42.132;24.786;2022-12-24T06:16:44;97600.66;;;1.42;100.00
7026;BME280;3554;42.132;24.786;2022-12-24T06:19:11;97579.13;;;1.44;100.00
7026;BME280;3554;42.132;24.786;2022-12-24T06:21:38;97590.78;;;1.54;100.00
7026;BME280;3554;42.132;24.786;2022-12-24T06:24:07;97601.00;;;1.57;100.00
7026;BME280;3554;42.132;24.786;2022-12-24T06:26:33;97607.84;;;1.58;100.00
7026;BME280;3554;42.132;24.786;2022-12-24T06:29:00;97616.78;;;1.73;100.00
7026;BME280;3554;42.132;24.786;2022-12-24T06:31:27;97636.91;;;1.88;100.00
7026;BME280;3554;42.132;24.786;2022-12-24T06:33:54;97662.44;;;1.95;100.00
7026;BME280;3554;42.132;24.786;2022-12-24T06:36:22;97694.19;;;1.97;100.00
7026;BME280;3554;42.132;24.786;2022-12-24T06:38:50;97732.66;;;2.03;100.00
7026;BME280;3554;42.132;24.786;2022-12-24T06:41:19;97788.13;;;2.16;100.00
7026;BME280;3554;42.132;24.786;2022-12-24T06:43:48;97836.25;;;2.17;100.00
7026;BME280;3554;42.132;24.786;2022-12-24T06:46:16;97873.97;;;2.22;100.00
7026;BME280;3554;42.132;24.786;2022-12-24T06:48:44;97913.03;;;2.37;100.00
7026;BME280;3554;42.132;24.786;2022-12-24T06:51:12;97929.53;;;2.33;100.00
7026;BME280;3554;42.132;24.786;2022-12-24T06:53:39;97954.09;;;2.45;100.00
7026;BME280;3554;42.132;24.786;2022-12-24T06:56:07;97953.69;;;2.31;100.00
7026;BME280;3554;42.132;24.786;2022-12-24T06:58:37;97989.03;;;2.56;100.00
7026;BME280;3554;42.132;24.786;2022-12-24T07:01:06;98007.81;;;2.61;100.00
7026;BME280;3554;42.132;24.786;2022-12-24T07:03:33;98023.31;;;2.61;100.00
7026;BME280;3554;42.132;24.786;2022-12-24T07:06:00;98035.56;;;2.82;100.00
7026;BME280;3554;42.132;24.786;2022-12-24T07:08:27;98046.28;;;2.96;100.00
7026;BME280;3554;42.132;24.786;2022-12-24T07:10:55;98073.91;;;2.94;100.00
7026;BME280;3554;42.132;24.786;2022-12-24T07:13:22;98080.41;;;3.07;100.00
7026;BME280;3554;42.132;24.786;2022-12-24T07:15:57;98101.44;;;3.23;100.00
7026;BME280;3554;42.132;24.786;2022-12-24T07:18:24;98148.31;;;3.12;100.00
7026;BME280;3554;42.132;24.786;2022-12-24T07:20:50;98139.13;;;3.30;100.00
7026;BME280;3554;42.132;24.786;2022-12-24T07:23:17;98152.69;;;3.37;100.00
7026;BME280;3554;42.132;24.786;2022-12-24T07:25:44;98151.59;;;3.44;100.00
7026;BME280;3554;42.132;24.786;2022-12-24T07:28:11;98144.84;;;3.66;100.00
7026;BME280;3554;42.132;24.786;2022-12-24T07:30:37;98145.84;;;3.62;100.00
7026;BME280;3554;42.132;24.786;2022-12-24T07:33:06;98140.13;;;3.78;100.00
7026;BME280;3554;42.132;24.786;2022-12-24T07:35:33;98124.28;;;3.87;100.00
7026;BME280;3554;42.132;24.786;2022-12-24T07:38:00;98126.56;;;3.96;100.00
7026;BME280;3554;42.132;24.786;2022-12-24T07:40:27;98130.88;;;4.20;100.00
7026;BME280;3554;42.132;24.786;2022-12-24T07:42:54;98188.53;;;4.01;100.00
7026;BME280;3554;42.132;24.786;2022-12-24T07:45:21;98186.59;;;4.07;100.00
7026;BME280;3554;42.132;24.786;2022-12-24T07:47:47;98175.78;;;4.44;100.00
7026;BME280;3554;42.132;24.786;2022-12-24T07:50:16;98182.41;;;4.76;100.00
7026;BME280;3554;42.132;24.786;2022-12-24T07:52:43;98223.88;;;4.99;100.00
7026;BME280;3554;42.132;24.786;2022-12-24T07:55:09;98249.47;;;5.31;100.00
7026;BME280;3554;42.132;24.786;2022-12-24T07:57:36;98280.09;;;5.44;100.00
7026;BME280;3554;42.132;24.786;2022-12-24T08:00:04;98308.00;;;5.84;100.00
7026;BME280;3554;42.132;24.786;2022-12-24T08:02:31;98357.09;;;5.90;100.00
7026;BME280;3554;42.132;24.786;2022-12-24T08:04:58;98406.88;;;6.01;100.00
7026;BME280;3554;42.132;24.786;2022-12-24T08:07:26;98434.97;;;6.13;100.00
7026;BME280;3554;42.132;24.786;2022-12-24T08:09:53;98463.22;;;6.22;100.00
7026;BME280;3554;42.132;24.786;2022-12-24T08:12:20;98488.59;;;6.37;100.00
7026;BME280;3554;42.132;24.786;2022-12-24T08:14:47;98466.72;;;6.43;100.00
7026;BME280;3554;42.132;24.786;2022-12-24T08:17:14;98501.91;;;6.51;100.00
7026;BME280;3554;42.132;24.786;2022-12-24T08:19:41;98556.16;;;6.61;100.00
7026;BME280;3554;42.132;24.786;2022-12-24T08:22:08;98568.19;;;6.63;100.00
7026;BME280;3554;42.132;24.786;2022-12-24T08:24:36;98540.78;;;6.78;100.00
7026;BME280;3554;42.132;24.786;2022-12-24T08:27:03;98579.06;;;6.96;100.00
7026;BME280;3554;42.132;24.786;2022-12-24T08:29:30;98585.75;;;7.03;100.00
7026;BME280;3554;42.132;24.786;2022-12-24T08:31:57;98631.72;;;7.02;100.00
7026;BME280;3554;42.132;24.786;2022-12-24T08:34:24;98655.53;;;6.92;100.00
7026;BME280;3554;42.132;24.786;2022-12-24T08:36:51;98683.41;;;7.11;100.00
7026;BME280;3554;42.132;24.786;2022-12-24T08:39:18;98708.94;;;7.23;100.00
7026;BME280;3554;42.132;24.786;2022-12-24T08:41:46;98720.03;;;7.28;100.00
7026;BME280;3554;42.132;24.786;2022-12-24T08:44:13;98728.50;;;7.33;100.00
7026;BME280;3554;42.132;24.786;2022-12-24T08:46:40;98744.19;;;7.32;100.00
7026;BME280;3554;42.132;24.786;2022-12-24T08:49:06;98762.75;;;7.23;100.00
7026;BME280;3554;42.132;24.786;2022-12-24T08:51:33;98776.59;;;7.00;100.00
7026;BME280;3554;42.132;24.786;2022-12-24T08:54:00;98782.19;;;6.65;100.00
7026;BME280;3554;42.132;24.786;2022-12-24T08:56:27;98745.56;;;6.71;100.00
7026;BME280;3554;42.132;24.786;2022-12-24T08:58:55;98732.00;;;6.63;100.00
7026;BME280;3554;42.132;24.786;2022-12-24T09:01:22;98724.31;;;6.60;100.00
7026;BME280;3554;42.132;24.786;2022-12-24T09:03:48;98694.53;;;6.69;100.00
7026;BME280;3554;42.132;24.786;2022-12-24T09:06:15;98682.16;;;6.75;100.00
7026;BME280;3554;42.132;24.786;2022-12-24T09:08:42;98629.13;;;6.56;100.00
7026;BME280;3554;42.132;24.786;2022-12-24T09:11:10;98667.13;;;6.83;100.00
7026;BME280;3554;42.132;24.786;2022-12-24T09:13:38;98681.94;;;6.81;100.00
7026;BME280;3554;42.132;24.786;2022-12-24T09:16:07;98691.31;;;6.85;100.00
7026;BME280;3554;42.132;24.786;2022-12-24T09:18:34;98683.94;;;6.96;100.00
7026;BME280;3554;42.132;24.786;2022-12-24T09:21:03;98684.25;;;7.12;100.00
7026;BME280;3554;42.132;24.786;2022-12-24T09:23:30;98693.47;;;7.20;100.00
7026;BME280;3554;42.132;24.786;2022-12-24T09:25:58;98697.59;;;7.26;100.00
7026;BME280;3554;42.132;24.786;2022-12-24T09:28:25;98710.00;;;7.41;100.00
7026;BME280;3554;42.132;24.786;2022-12-24T09:30:56;98722.53;;;7.53;100.00
7026;BME280;3554;42.132;24.786;2022-12-24T09:33:25;98733.59;;;7.81;100.00
7026;BME280;3554;42.132;24.786;2022-12-24T09:35:52;98736.94;;;8.05;100.00
7026;BME280;3554;42.132;24.786;2022-12-24T09:38:19;98780.72;;;8.18;100.00
7026;BME280;3554;42.132;24.786;2022-12-24T09:40:47;98796.03;;;8.27;100.00
7026;BME280;3554;42.132;24.786;2022-12-24T09:43:16;98808.47;;;8.41;100.00
7026;BME280;3554;42.132;24.786;2022-12-24T09:45:49;98834.59;;;8.61;100.00
7026;BME280;3554;42.132;24.786;2022-12-24T09:48:25;98856.72;;;8.51;100.00
7026;BME280;3554;42.132;24.786;2022-12-24T09:50:56;98853.59;;;8.43;100.00
7026;BME280;3554;42.132;24.786;2022-12-24T09:53:29;98876.06;;;8.67;100.00
7026;BME280;3554;42.132;24.786;2022-12-24T09:56:03;98865.31;;;8.75;100.00
7026;BME280;3554;42.132;24.786;2022-12-24T09:58:34;98882.03;;;8.91;100.00
7026;BME280;3554;42.132;24.786;2022-12-24T10:01:03;98881.53;;;9.03;100.00
7026;BME280;3554;42.132;24.786;2022-12-24T10:03:31;98891.97;;;9.23;100.00
7026;BME280;3554;42.132;24.786;2022-12-24T10:06:05;98904.00;;;9.27;100.00
7026;BME280;3554;42.132;24.786;2022-12-24T10:08:42;98918.88;;;9.25;100.00
7026;BME280;3554;42.132;24.786;2022-12-24T10:11:18;98915.19;;;9.49;100.00
7026;BME280;3554;42.132;24.786;2022-12-24T10:13:57;98920.56;;;9.85;100.00
7026;BME280;3554;42.132;24.786;2022-12-24T10:16:34;98925.28;;;10.15;100.00
7026;BME280;3554;42.132;24.786;2022-12-24T10:19:09;98943.81;;;10.11;100.00
7026;BME280;3554;42.132;24.786;2022-12-24T10:21:49;98955.38;;;10.05;100.00
7026;BME280;3554;42.132;24.786;2022-12-24T10:24:25;98956.13;;;10.09;100.00
7026;BME280;3554;42.132;24.786;2022-12-24T10:27:00;98958.47;;;9.95;100.00
7026;BME280;3554;42.132;24.786;2022-12-24T10:29:30;98950.72;;;9.53;100.00
7026;BME280;3554;42.132;24.786;2022-12-24T10:32:03;98939.31;;;9.35;100.00
7026;BME280;3554;42.132;24.786;2022-12-24T10:34:41;98948.97;;;9.33;100.00
7026;BME280;3554;42.132;24.786;2022-12-24T10:37:15;98925.94;;;9.43;100.00
7026;BME280;3554;42.132;24.786;2022-12-24T10:39:42;98918.34;;;9.57;100.00
7026;BME280;3554;42.132;24.786;2022-12-24T10:42:11;98905.81;;;9.84;100.00
7026;BME280;3554;42.132;24.786;2022-12-24T10:44:39;98920.59;;;10.03;100.00
7026;BME280;3554;42.132;24.786;2022-12-24T10:47:07;98932.09;;;10.19;100.00
7026;BME280;3554;42.132;24.786;2022-12-24T10:49:41;98953.56;;;10.26;100.00
7026;BME280;3554;42.132;24.786;2022-12-24T10:52:11;98937.50;;;10.15;100.00
7026;BME280;3554;42.132;24.786;2022-12-24T10:55:09;98969.53;;;10.38;100.00
7026;BME280;3554;42.132;24.786;2022-12-24T10:57:40;98971.78;;;10.64;100.00
7026;BME280;3554;42.132;24.786;2022-12-24T11:00:18;98949.13;;;10.46;100.00
7026;BME280;3554;42.132;24.786;2022-12-24T11:02:46;98968.47;;;10.79;100.00
7026;BME280;3554;42.132;24.786;2022-12-24T11:05:28;98970.63;;;10.89;100.00
7026;BME280;3554;42.132;24.786;2022-12-24T11:07:58;98990.06;;;10.66;100.00
7026;BME280;3554;42.132;24.786;2022-12-24T11:10:25;98987.34;;;10.49;100.00
7026;BME280;3554;42.132;24.786;2022-12-24T11:12:52;98973.91;;;10.75;100.00
7026;BME280;3554;42.132;24.786;2022-12-24T11:15:23;98984.25;;;10.78;100.00
7026;BME280;3554;42.132;24.786;2022-12-24T11:17:54;98984.25;;;10.78;100.00
7026;BME280;3554;42.132;24.786;2022-12-24T11:20:25;98990.19;;;10.82;100.00
7026;BME280;3554;42.132;24.786;2022-12-24T11:22:54;98986.19;;;10.92;100.00
7026;BME280;3554;42.132;24.786;2022-12-24T11:25:24;98975.63;;;10.93;100.00
7026;BME280;3554;42.132;24.786;2022-12-24T11:27:53;98987.91;;;10.93;100.00
7026;BME280;3554;42.132;24.786;2022-12-24T11:30:30;98981.84;;;10.36;100.00
7026;BME280;3554;42.132;24.786;2022-12-24T11:33:20;98965.56;;;10.67;100.00
7026;BME280;3554;42.132;24.786;2022-12-24T11:35:50;98962.75;;;10.71;100.00
7026;BME280;3554;42.132;24.786;2022-12-24T11:38:21;98941.75;;;10.90;100.00
7026;BME280;3554;42.132;24.786;2022-12-24T11:40:58;98937.91;;;10.80;100.00
7026;BME280;3554;42.132;24.786;2022-12-24T11:43:25;98962.34;;;10.98;100.00
7026;BME280;3554;42.132;24.786;2022-12-24T11:46:34;98963.66;;;11.06;100.00
7026;BME280;3554;42.132;24.786;2022-12-24T11:49:13;98962.25;;;11.16;100.00
7026;BME280;3554;42.132;24.786;2022-12-24T11:51:59;98937.38;;;11.08;100.00
7026;BME280;3554;42.132;24.786;2022-12-24T11:54:34;98950.06;;;10.81;100.00
7026;BME280;3554;42.132;24.786;2022-12-24T11:57:04;98945.41;;;11.05;100.00
7026;BME280;3554;42.132;24.786;2022-12-24T11:59:36;98951.09;;;10.96;100.00
7026;BME280;3554;42.132;24.786;2022-12-24T12:02:14;98953.34;;;11.03;100.00
7026;BME280;3554;42.132;24.786;2022-12-24T12:04:45;98952.03;;;10.95;100.00
7026;BME280;3554;42.132;24.786;2022-12-24T12:07:17;98959.00;;;10.58;100.00
7026;BME280;3554;42.132;24.786;2022-12-24T12:09:49;98939.28;;;10.51;100.00
7026;BME280;3554;42.132;24.786;2022-12-24T12:12:21;98924.66;;;10.47;100.00
7026;BME280;3554;42.132;24.786;2022-12-24T12:14:53;98923.69;;;10.67;100.00
7026;BME280;3554;42.132;24.786;2022-12-24T12:17:30;98922.97;;;10.82;100.00
7026;BME280;3554;42.132;24.786;2022-12-24T12:20:20;98936.25;;;10.77;100.00
7026;BME280;3554;42.132;24.786;2022-12-24T12:23:10;98945.38;;;10.52;100.00
7026;BME280;3554;42.132;24.786;2022-12-24T12:25:45;98930.66;;;10.85;100.00
7026;BME280;3554;42.132;24.786;2022-12-24T12:28:50;98938.84;;;10.96;100.00
7026;BME280;3554;42.132;24.786;2022-12-24T12:31:32;98939.91;;;11.09;100.00
7026;BME280;3554;42.132;24.786;2022-12-24T12:34:08;98951.78;;;11.16;100.00
7026;BME280;3554;42.132;24.786;2022-12-24T12:39:34;98944.00;;;11.15;100.00
7026;BME280;3554;42.132;24.786;2022-12-24T12:42:12;98937.06;;;10.97;100.00
7026;BME280;3554;42.132;24.786;2022-12-24T12:44:50;98944.09;;;10.60;100.00
7026;BME280;3554;42.132;24.786;2022-12-24T12:47:52;98926.91;;;10.55;100.00
7026;BME280;3554;42.132;24.786;2022-12-24T12:50:27;98911.09;;;10.75;100.00
7026;BME280;3554;42.132;24.786;2022-12-24T12:53:14;98905.38;;;10.84;100.00
7026;BME280;3554;42.132;24.786;2022-12-24T12:55:53;98904.66;;;10.82;100.00
7026;BME280;3554;42.132;24.786;2022-12-24T12:58:26;98861.22;;;10.42;100.00
7026;BME280;3554;42.132;24.786;2022-12-24T13:01:00;98888.28;;;10.77;100.00
7026;BME280;3554;42.132;24.786;2022-12-24T13:06:55;98887.31;;;10.79;100.00
7026;BME280;3554;42.132;24.786;2022-12-24T13:09:53;98890.53;;;10.67;100.00
7026;BME280;3554;42.132;24.786;2022-12-24T13:12:43;98889.59;;;10.68;100.00
7026;BME280;3554;42.132;24.786;2022-12-24T13:15:29;98882.81;;;10.64;100.00
7026;BME280;3554;42.132;24.786;2022-12-24T13:18:20;98890.53;;;10.67;100.00
7026;BME280;3554;42.132;24.786;2022-12-24T13:20:52;98892.38;;;10.65;100.00
7026;BME280;3554;42.132;24.786;2022-12-24T13:23:20;98903.75;;;10.64;100.00
7026;BME280;3554;42.132;24.786;2022-12-24T13:25:49;98893.16;;;10.67;100.00
7026;BME280;3554;42.132;24.786;2022-12-24T13:28:30;98883.72;;;10.46;100.00
7026;BME280;3554;42.132;24.786;2022-12-24T13:31:25;98930.44;;;10.54;100.00
7026;BME280;3554;42.132;24.786;2022-12-24T13:33:58;98931.78;;;10.44;100.00